Time;durP1;ratioP1;P1;durP2;ratioP2;P2;SDS_P1;SDS_P2;PMS_P1;PMS_P2;Temp;Humidity;BMP_temperature;BMP_pressure;BME280_temperature;BME280_humidity;BME280_pressure;Samples;Min_cycle;Max_cycle;Signal;HPM_P1;HPM_P2
2022/01/15 00:01:30;;;;;;;11.15;8.80;;;;;;;;;;5034048;28;20022;-76
2022/01/15 00:03:56;;;;;;;11.52;8.43;;;;;;;;;;5033095;28;20061;-76
2022/01/15 00:06:22;;;;;;;10.95;8.50;;;;;;;;;;5048297;28;20028;-76
2022/01/15 00:08:48;;;;;;;12.88;9.70;;;;;;;;;;5054345;28;20492;-76
2022/01/15 00:11:14;;;;;;;11.15;8.77;;;;;;;;;;5053596;28;20025;-76
2022/01/15 00:13:43;;;;;;;11.27;8.85;;;;;;;;;;5053832;28;20548;-76
2022/01/15 00:16:26;;;;;;;11.20;8.85;;;;;;;;;;5054015;28;20036;-76
2022/01/15 00:19:07;;;;;;;12.15;9.48;;;;;;;;;;5054273;28;20028;-76
2022/01/15 00:21:33;;;;;;;11.75;8.73;;;;;;;;;;5053564;28;20016;-76
2022/01/15 00:24:00;;;;;;;14.35;9.18;;;;;;;;;;5052630;28;20099;-76
2022/01/15 00:26:26;;;;;;;13.05;9.32;;;;;;;;;;5045434;28;20385;-76
2022/01/15 00:28:52;;;;;;;10.77;8.30;;;;;;;;;;5034094;28;20021;-76
2022/01/15 00:31:18;;;;;;;12.02;9.43;;;;;;;;;;5033615;28;20060;-76
2022/01/15 00:33:45;;;;;;;10.00;8.10;;;;;;;;;;5033887;28;20040;-76
2022/01/15 00:36:11;;;;;;;13.02;8.32;;;;;;;;;;5033976;28;20025;-76
2022/01/15 00:38:37;;;;;;;10.40;8.20;;;;;;;;;;5034248;28;20104;-76
2022/01/15 00:41:03;;;;;;;12.15;8.82;;;;;;;;;;5037485;28;20028;-76
2022/01/15 00:43:29;;;;;;;10.10;8.50;;;;;;;;;;5053303;28;20086;-76
2022/01/15 00:45:58;;;;;;;10.05;8.02;;;;;;;;;;5052350;28;20025;-76
2022/01/15 00:48:24;;;;;;;11.82;8.98;;;;;;;;;;5053848;28;20025;-76
2022/01/15 00:50:51;;;;;;;9.82;7.88;;;;;;;;;;5053973;28;20028;-76
2022/01/15 00:53:17;;;;;;;11.05;8.35;;;;;;;;;;5054164;28;20029;-75
2022/01/15 00:55:43;;;;;;;11.88;9.00;;;;;;;;;;5054241;28;20439;-76
2022/01/15 00:58:09;;;;;;;12.55;8.93;;;;;;;;;;5052541;28;20131;-76
2022/01/15 01:00:36;;;;;;;11.35;7.97;;;;;;;;;;5054127;28;20104;-76
2022/01/15 01:03:02;;;;;;;10.73;8.40;;;;;;;;;;5053867;28;20052;-76
2022/01/15 01:05:28;;;;;;;10.63;8.10;;;;;;;;;;5046919;28;20022;-76
2022/01/15 01:07:56;;;;;;;11.38;8.65;;;;;;;;;;5033751;28;20060;-76
2022/01/15 01:13:10;;;;;;;9.60;7.78;;;;;;;;;;5033499;28;20410;-76
2022/01/15 01:23:46;;;;;;;10.93;8.10;;;;;;;;;;5032738;28;20052;-76
2022/01/15 01:26:26;;;;;;;9.02;7.68;;;;;;;;;;5039800;28;20025;-75
2022/01/15 01:29:03;;;;;;;10.02;8.05;;;;;;;;;;5051674;28;20087;-76
2022/01/15 01:31:39;;;;;;;10.35;7.88;;;;;;;;;;5052362;28;20571;-76
2022/01/15 01:34:09;;;;;;;10.13;7.32;;;;;;;;;;5051415;28;20503;-76
2022/01/15 01:39:18;;;;;;;9.63;7.65;;;;;;;;;;5052997;28;20087;-76
2022/01/15 01:41:54;;;;;;;9.13;7.68;;;;;;;;;;5042918;28;20075;-76
2022/01/15 01:44:25;;;;;;;13.77;8.25;;;;;;;;;;5033389;28;20116;-75
2022/01/15 01:47:02;;;;;;;11.45;8.20;;;;;;;;;;5033276;28;20025;-75
2022/01/15 01:49:28;;;;;;;10.65;8.07;;;;;;;;;;5031988;28;20504;-75
2022/01/15 01:51:54;;;;;;;10.27;7.55;;;;;;;;;;5032729;28;20381;-75
2022/01/15 01:54:20;;;;;;;8.50;7.40;;;;;;;;;;5033128;28;20034;-75
2022/01/15 01:56:48;;;;;;;9.68;7.88;;;;;;;;;;5032874;28;20041;-75
2022/01/15 01:59:16;;;;;;;8.98;7.65;;;;;;;;;;5033211;28;20052;-75
2022/01/15 02:01:43;;;;;;;11.07;7.93;;;;;;;;;;5032464;28;20076;-75
2022/01/15 02:04:09;;;;;;;9.15;7.40;;;;;;;;;;5033168;28;20033;-76
2022/01/15 02:06:38;;;;;;;9.88;8.00;;;;;;;;;;5042245;28;20028;-76
2022/01/15 02:09:06;;;;;;;8.52;7.18;;;;;;;;;;5043578;28;20028;-76
2022/01/15 02:11:32;;;;;;;9.07;7.35;;;;;;;;;;5038865;28;20156;-76
2022/01/15 02:13:58;;;;;;;10.35;7.68;;;;;;;;;;5031195;28;20033;-76
2022/01/15 02:16:24;;;;;;;9.52;7.32;;;;;;;;;;5050436;28;20056;-76
2022/01/15 02:18:54;;;;;;;9.57;7.30;;;;;;;;;;5053075;28;20488;-75
2022/01/15 02:23:49;;;;;;;8.10;6.65;;;;;;;;;;5044035;28;20370;-76
2022/01/15 02:26:26;;;;;;;9.30;7.18;;;;;;;;;;5032513;28;20022;-76
2022/01/15 02:28:57;;;;;;;8.38;6.88;;;;;;;;;;5032969;28;20341;-76
2022/01/15 02:31:23;;;;;;;8.70;6.95;;;;;;;;;;5032829;28;20100;-75
2022/01/15 02:33:50;;;;;;;8.15;6.63;;;;;;;;;;5035930;28;20033;-76
2022/01/15 02:36:21;;;;;;;7.57;6.45;;;;;;;;;;5037052;28;20492;-76
2022/01/15 02:38:47;;;;;;;9.32;6.90;;;;;;;;;;5037686;28;20032;-75
2022/01/15 02:41:14;;;;;;;7.85;6.80;;;;;;;;;;5042853;28;20510;-76
2022/01/15 02:43:40;;;;;;;8.93;7.25;;;;;;;;;;5036471;28;20056;-76
2022/01/15 02:48:47;;;;;;;8.43;6.80;;;;;;;;;;5035929;28;20554;-76
2022/01/15 02:51:13;;;;;;;7.40;6.07;;;;;;;;;;5035821;28;20416;-76
2022/01/15 02:53:39;;;;;;;8.60;6.65;;;;;;;;;;5035546;28;20029;-76
2022/01/15 02:56:05;;;;;;;8.93;6.88;;;;;;;;;;5035878;28;20021;-76
2022/01/15 02:58:31;;;;;;;9.25;7.00;;;;;;;;;;5035520;28;20053;-76
2022/01/15 03:00:57;;;;;;;8.52;6.78;;;;;;;;;;5034965;28;20040;-76
2022/01/15 03:03:23;;;;;;;8.27;6.60;;;;;;;;;;5036561;28;20507;-76
2022/01/15 03:05:50;;;;;;;8.95;6.57;;;;;;;;;;5044535;28;20059;-75
2022/01/15 03:08:16;;;;;;;6.70;6.03;;;;;;;;;;5055970;28;20021;-76
2022/01/15 03:10:42;;;;;;;8.95;6.80;;;;;;;;;;5056439;28;20503;-76
2022/01/15 03:13:13;;;;;;;8.23;6.22;;;;;;;;;;5055987;28;20103;-76
2022/01/15 03:15:39;;;;;;;7.55;6.28;;;;;;;;;;5042169;28;20033;-75
2022/01/15 03:18:05;;;;;;;8.02;6.03;;;;;;;;;;5036200;28;20034;-75
2022/01/15 03:20:31;;;;;;;6.88;5.80;;;;;;;;;;5035673;28;20030;-75
2022/01/15 03:22:58;;;;;;;7.65;5.82;;;;;;;;;;5035277;28;20065;-76
2022/01/15 03:25:24;;;;;;;7.85;6.47;;;;;;;;;;5035303;28;20030;-76
2022/01/15 03:27:50;;;;;;;7.95;5.93;;;;;;;;;;5035543;28;20037;-75
2022/01/15 03:30:16;;;;;;;7.10;5.85;;;;;;;;;;5035763;28;20092;-76
2022/01/15 03:32:45;;;;;;;7.47;6.00;;;;;;;;;;5034536;28;20029;-75
2022/01/15 03:35:12;;;;;;;7.38;6.13;;;;;;;;;;5036313;28;20030;-75
2022/01/15 03:37:38;;;;;;;7.65;5.68;;;;;;;;;;5035792;28;20392;-75
2022/01/15 03:40:05;;;;;;;8.38;5.90;;;;;;;;;;5034345;28;20484;-75
2022/01/15 03:42:31;;;;;;;9.55;6.40;;;;;;;;;;5051194;28;20033;-75
2022/01/15 03:44:57;;;;;;;6.63;5.70;;;;;;;;;;5054465;28;20021;-75
2022/01/15 03:47:23;;;;;;;7.38;5.78;;;;;;;;;;5054721;28;20484;-75
2022/01/15 03:49:49;;;;;;;7.93;6.03;;;;;;;;;;5053489;28;20469;-75
2022/01/15 03:52:15;;;;;;;7.45;6.00;;;;;;;;;;5054135;28;20033;-75
2022/01/15 03:54:41;;;;;;;8.25;5.93;;;;;;;;;;5054635;28;20403;-75
2022/01/15 03:57:08;;;;;;;7.03;5.65;;;;;;;;;;5054240;28;20056;-75
2022/01/15 03:59:34;;;;;;;7.13;5.55;;;;;;;;;;5053552;28;20025;-76
2022/01/15 04:02:00;;;;;;;7.05;5.55;;;;;;;;;;5054007;28;20112;-75
2022/01/15 04:04:26;;;;;;;6.57;5.68;;;;;;;;;;5054467;28;20044;-75
2022/01/15 04:06:52;;;;;;;6.88;5.68;;;;;;;;;;5035132;28;20033;-75
2022/01/15 04:09:18;;;;;;;6.95;5.50;;;;;;;;;;5034219;28;20127;-75
2022/01/15 04:11:45;;;;;;;6.53;5.50;;;;;;;;;;5034061;28;20021;-75
2022/01/15 04:14:11;;;;;;;6.88;5.82;;;;;;;;;;5034945;28;20504;-75
2022/01/15 04:16:37;;;;;;;6.97;5.45;;;;;;;;;;5053143;28;20104;-75
2022/01/15 04:19:06;;;;;;;7.35;5.70;;;;;;;;;;5054114;28;20033;-75
2022/01/15 04:21:33;;;;;;;7.40;5.35;;;;;;;;;;5053940;28;20059;-75
2022/01/15 04:23:59;;;;;;;6.93;5.63;;;;;;;;;;5052521;28;20039;-75
2022/01/15 04:26:26;;;;;;;6.38;5.47;;;;;;;;;;5054188;28;20021;-75
2022/01/15 04:29:02;;;;;;;6.13;5.38;;;;;;;;;;5054349;28;20033;-75
2022/01/15 04:31:35;;;;;;;6.55;5.18;;;;;;;;;;5053697;28;20075;-75
2022/01/15 04:34:01;;;;;;;7.10;5.50;;;;;;;;;;5053855;28;20016;-75
2022/01/15 04:36:27;;;;;;;7.10;5.53;;;;;;;;;;5054220;28;20963;-75
2022/01/15 04:38:53;;;;;;;8.15;5.80;;;;;;;;;;5052519;28;20025;-75
2022/01/15 04:41:19;;;;;;;8.55;5.68;;;;;;;;;;5047417;28;20029;-75
2022/01/15 04:43:45;;;;;;;7.95;5.55;;;;;;;;;;5032621;28;20052;-75
2022/01/15 04:46:11;;;;;;;7.25;5.55;;;;;;;;;;5034189;28;20022;-75
2022/01/15 04:48:37;;;;;;;6.75;5.20;;;;;;;;;;5032733;28;20135;-75
2022/01/15 04:51:03;;;;;;;7.07;5.05;;;;;;;;;;5033703;28;20519;-75
2022/01/15 04:53:29;;;;;;;6.45;5.53;;;;;;;;;;5033127;28;20432;-75
2022/01/15 04:55:55;;;;;;;6.85;5.40;;;;;;;;;;5033821;28;20029;-75
2022/01/15 04:58:23;;;;;;;6.75;5.90;;;;;;;;;;5033355;28;20120;-75
2022/01/15 05:00:49;;;;;;;6.57;5.38;;;;;;;;;;5034078;28;20514;-75
2022/01/15 05:03:15;;;;;;;7.55;5.55;;;;;;;;;;5032944;28;20164;-75
2022/01/15 05:05:41;;;;;;;5.72;4.88;;;;;;;;;;5041440;28;20025;-75
2022/01/15 05:08:10;;;;;;;7.32;5.85;;;;;;;;;;5053720;28;20021;-75
2022/01/15 05:10:37;;;;;;;8.98;5.65;;;;;;;;;;5053194;28;20029;-75
2022/01/15 05:13:03;;;;;;;6.82;5.47;;;;;;;;;;5053427;28;20051;-75
2022/01/15 05:15:29;;;;;;;6.82;5.68;;;;;;;;;;5040426;28;20036;-75
2022/01/15 05:17:55;;;;;;;6.35;5.32;;;;;;;;;;5033398;28;20090;-75
2022/01/15 05:20:22;;;;;;;7.20;5.75;;;;;;;;;;5033315;28;20087;-75
2022/01/15 05:22:49;;;;;;;6.65;5.25;;;;;;;;;;5031743;28;20167;-75
2022/01/15 05:25:19;;;;;;;6.63;5.55;;;;;;;;;;5032834;28;20104;-75
2022/01/15 05:27:46;;;;;;;6.05;4.90;;;;;;;;;;5031782;28;20413;-75
2022/01/15 05:30:12;;;;;;;7.03;5.28;;;;;;;;;;5031598;28;20053;-75
2022/01/15 05:32:39;;;;;;;5.90;5.22;;;;;;;;;;5033066;28;20508;-75
2022/01/15 05:35:05;;;;;;;6.32;5.03;;;;;;;;;;5032756;28;20065;-75
2022/01/15 05:37:31;;;;;;;7.65;5.55;;;;;;;;;;5033190;28;20033;-75
2022/01/15 05:39:57;;;;;;;7.20;5.72;;;;;;;;;;5031313;28;20029;-75
2022/01/15 05:42:24;;;;;;;7.57;6.03;;;;;;;;;;5047409;28;20036;-75
2022/01/15 05:44:50;;;;;;;6.32;5.15;;;;;;;;;;5052912;28;20063;-75
2022/01/15 05:47:16;;;;;;;6.60;5.07;;;;;;;;;;5051770;28;20488;-75
2022/01/15 05:49:42;;;;;;;7.20;5.78;;;;;;;;;;5052449;28;20488;-75
2022/01/15 05:52:08;;;;;;;6.40;5.70;;;;;;;;;;5052263;28;20404;-75
2022/01/15 05:54:34;;;;;;;6.78;5.40;;;;;;;;;;5052408;28;20028;-75
2022/01/15 05:57:00;;;;;;;6.68;5.60;;;;;;;;;;5051151;28;20041;-75
2022/01/15 05:59:26;;;;;;;7.28;5.28;;;;;;;;;;5052345;28;20103;-75
2022/01/15 06:01:52;;;;;;;6.63;5.38;;;;;;;;;;5051837;28;20028;-75
2022/01/15 06:04:18;;;;;;;6.13;5.35;;;;;;;;;;5051495;28;20496;-75
2022/01/15 06:06:45;;;;;;;6.55;4.95;;;;;;;;;;5035400;28;20021;-75
2022/01/15 06:09:11;;;;;;;6.32;5.38;;;;;;;;;;5032457;28;20100;-75
2022/01/15 06:11:39;;;;;;;7.15;5.80;;;;;;;;;;5032538;28;20036;-75
2022/01/15 06:14:05;;;;;;;6.47;5.22;;;;;;;;;;5032102;28;20079;-75
2022/01/15 06:16:31;;;;;;;7.15;5.30;;;;;;;;;;5052391;28;20026;-75
2022/01/15 06:18:57;;;;;;;6.22;4.93;;;;;;;;;;5052384;28;20425;-75
2022/01/15 06:21:23;;;;;;;6.82;5.45;;;;;;;;;;5051368;28;20484;-75
2022/01/15 06:23:49;;;;;;;8.45;5.90;;;;;;;;;;5051959;28;20089;-75
2022/01/15 06:26:16;;;;;;;7.95;5.38;;;;;;;;;;5052063;28;20029;-75
2022/01/15 06:28:42;;;;;;;6.82;5.35;;;;;;;;;;5052070;28;20492;-75
2022/01/15 06:31:08;;;;;;;5.43;4.80;;;;;;;;;;5051935;28;20608;-75
2022/01/15 06:33:34;;;;;;;8.18;5.40;;;;;;;;;;5051521;28;20036;-75
2022/01/15 06:36:00;;;;;;;7.40;5.32;;;;;;;;;;5051986;28;20025;-75
2022/01/15 06:38:27;;;;;;;7.20;6.03;;;;;;;;;;5051914;28;20560;-75
2022/01/15 06:40:53;;;;;;;7.57;5.60;;;;;;;;;;5047950;28;20472;-75
2022/01/15 06:43:19;;;;;;;7.68;5.40;;;;;;;;;;5032090;28;20030;-75
2022/01/15 06:45:45;;;;;;;8.18;5.65;;;;;;;;;;5031957;28;20052;-75
2022/01/15 06:48:11;;;;;;;8.98;5.57;;;;;;;;;;5032401;28;20570;-75
2022/01/15 06:50:37;;;;;;;6.95;5.50;;;;;;;;;;5031945;28;20029;-75
2022/01/15 06:53:04;;;;;;;7.63;5.65;;;;;;;;;;5032010;28;20057;-75
2022/01/15 06:55:30;;;;;;;7.10;5.53;;;;;;;;;;5031761;28;20037;-75
2022/01/15 06:57:56;;;;;;;7.50;5.82;;;;;;;;;;5032215;28;20053;-75
2022/01/15 07:00:24;;;;;;;6.93;5.78;;;;;;;;;;5031655;28;20485;-75
2022/01/15 07:02:50;;;;;;;8.02;6.30;;;;;;;;;;5031836;28;20026;-75
2022/01/15 07:05:20;;;;;;;7.28;5.75;;;;;;;;;;5036377;28;20021;-75
2022/01/15 07:07:46;;;;;;;7.32;6.15;;;;;;;;;;5051925;28;20159;-75
2022/01/15 07:10:13;;;;;;;7.50;5.38;;;;;;;;;;5051893;28;20051;-75
2022/01/15 07:12:39;;;;;;;6.78;5.22;;;;;;;;;;5052510;28;20457;-75
2022/01/15 07:15:05;;;;;;;6.40;5.28;;;;;;;;;;5042599;28;20026;-75
2022/01/15 07:17:31;;;;;;;7.45;5.93;;;;;;;;;;5030929;28;20025;-75
2022/01/15 07:19:57;;;;;;;7.78;5.80;;;;;;;;;;5034817;28;20021;-75
2022/01/15 07:22:24;;;;;;;8.27;5.78;;;;;;;;;;5033861;28;20489;-75
2022/01/15 07:24:50;;;;;;;8.45;6.30;;;;;;;;;;5035340;28;20396;-75
2022/01/15 07:27:16;;;;;;;6.95;5.57;;;;;;;;;;5035336;28;20079;-75
2022/01/15 07:29:42;;;;;;;6.90;5.95;;;;;;;;;;5035813;28;20021;-75
2022/01/15 07:32:08;;;;;;;8.80;6.00;;;;;;;;;;5034511;28;20036;-75
2022/01/15 07:34:34;;;;;;;7.35;5.55;;;;;;;;;;5035556;28;20428;-75
2022/01/15 07:37:00;;;;;;;7.78;5.85;;;;;;;;;;5035268;28;20051;-76
2022/01/15 07:39:27;;;;;;;7.88;5.80;;;;;;;;;;5034810;28;20021;-76
2022/01/15 07:41:55;;;;;;;7.53;5.85;;;;;;;;;;5043809;28;20097;-76
2022/01/15 07:44:22;;;;;;;9.55;5.72;;;;;;;;;;5054982;28;20025;-76
2022/01/15 07:46:48;;;;;;;9.65;6.13;;;;;;;;;;5053625;28;20021;-76
2022/01/15 07:49:14;;;;;;;6.95;5.63;;;;;;;;;;5054730;28;20100;-76
2022/01/15 07:51:40;;;;;;;8.55;6.50;;;;;;;;;;5054232;28;20672;-76
2022/01/15 07:54:06;;;;;;;7.43;5.63;;;;;;;;;;5054819;28;20029;-75
2022/01/15 07:56:32;;;;;;;6.95;5.75;;;;;;;;;;5054315;28;20025;-76
2022/01/15 07:58:58;;;;;;;7.63;6.07;;;;;;;;;;5055005;28;20033;-76
2022/01/15 08:01:24;;;;;;;8.23;6.18;;;;;;;;;;5054043;28;20105;-76
2022/01/15 08:03:50;;;;;;;8.90;5.57;;;;;;;;;;5053700;28;20025;-76
2022/01/15 08:06:16;;;;;;;7.10;5.82;;;;;;;;;;5041648;28;20021;-76
2022/01/15 08:08:42;;;;;;;7.32;5.65;;;;;;;;;;5035300;28;20029;-76
2022/01/15 08:11:08;;;;;;;8.52;5.85;;;;;;;;;;5035012;28;20026;-76
2022/01/15 08:13:34;;;;;;;8.38;5.97;;;;;;;;;;5034067;28;20059;-76
2022/01/15 08:16:04;;;;;;;6.97;5.82;;;;;;;;;;5051678;28;20025;-76
2022/01/15 08:18:31;;;;;;;9.88;6.18;;;;;;;;;;5054920;28;20423;-76
2022/01/15 08:20:58;;;;;;;8.65;5.78;;;;;;;;;;5054503;28;20025;-76
2022/01/15 08:23:24;;;;;;;10.32;6.28;;;;;;;;;;5054610;28;20545;-76
2022/01/15 08:25:50;;;;;;;8.60;6.40;;;;;;;;;;5054842;28;20400;-76
2022/01/15 08:28:17;;;;;;;10.48;6.93;;;;;;;;;;5053225;28;20025;-75
2022/01/15 08:30:44;;;;;;;10.38;6.63;;;;;;;;;;5054156;28;20025;-75
2022/01/15 08:33:10;;;;;;;8.02;5.80;;;;;;;;;;5054914;28;20029;-75
2022/01/15 08:35:36;;;;;;;10.27;6.40;;;;;;;;;;5054799;28;20523;-75
2022/01/15 08:38:03;;;;;;;9.80;6.95;;;;;;;;;;5054908;28;20055;-75
2022/01/15 08:40:29;;;;;;;9.80;6.95;;;;;;;;;;5055019;28;20029;-75
2022/01/15 08:42:56;;;;;;;9.40;6.85;;;;;;;;;;5034235;28;20033;-75
2022/01/15 08:45:22;;;;;;;8.00;6.30;;;;;;;;;;5034343;28;20029;-75
2022/01/15 08:47:48;;;;;;;8.30;6.55;;;;;;;;;;5033712;28;20034;-75
2022/01/15 08:50:15;;;;;;;8.43;6.45;;;;;;;;;;5033626;28;20017;-75
2022/01/15 08:52:42;;;;;;;10.30;6.72;;;;;;;;;;5034147;28;20503;-75
2022/01/15 08:55:09;;;;;;;9.55;6.93;;;;;;;;;;5033300;28;20488;-75
2022/01/15 08:57:35;;;;;;;8.45;6.57;;;;;;;;;;5034153;28;20072;-75
2022/01/15 09:00:01;;;;;;;10.38;7.10;;;;;;;;;;5034405;28;20030;-75
2022/01/15 09:02:27;;;;;;;9.77;7.38;;;;;;;;;;5032855;28;20052;-75
2022/01/15 09:04:53;;;;;;;8.68;7.45;;;;;;;;;;5034040;28;20108;-75
2022/01/15 09:07:20;;;;;;;11.63;7.97;;;;;;;;;;5053703;28;20040;-75
2022/01/15 09:09:46;;;;;;;10.35;7.45;;;;;;;;;;5053817;28;20017;-75
2022/01/15 09:12:12;;;;;;;10.85;7.93;;;;;;;;;;5052606;28;20024;-75
2022/01/15 09:14:39;;;;;;;10.93;7.93;;;;;;;;;;5048223;28;20029;-74
2022/01/15 09:17:05;;;;;;;12.75;7.88;;;;;;;;;;5031910;28;20481;-74
2022/01/15 09:19:32;;;;;;;10.32;7.72;;;;;;;;;;5034099;28;20101;-74
2022/01/15 09:21:58;;;;;;;9.13;7.30;;;;;;;;;;5033002;28;20030;-74
2022/01/15 09:24:24;;;;;;;11.88;7.53;;;;;;;;;;5033639;28;20032;-74
2022/01/15 09:32:05;;;;;;;10.88;7.97;;;;;;;;;;5033336;28;20040;-74
2022/01/15 09:34:34;;;;;;;10.38;7.70;;;;;;;;;;5033558;28;20064;-74
2022/01/15 09:37:00;;;;;;;11.30;8.27;;;;;;;;;;5033168;28;20037;-74
2022/01/15 09:39:26;;;;;;;12.52;7.63;;;;;;;;;;5033274;28;20025;-74
2022/01/15 09:41:54;;;;;;;11.93;7.90;;;;;;;;;;5043913;28;20468;-74
2022/01/15 09:44:21;;;;;;;9.35;7.93;;;;;;;;;;5053073;28;20094;-74
2022/01/15 09:46:48;;;;;;;9.32;7.75;;;;;;;;;;5053472;28;20025;-75
2022/01/15 09:49:15;;;;;;;11.50;7.80;;;;;;;;;;5053401;28;20080;-75
2022/01/15 09:51:41;;;;;;;10.02;7.15;;;;;;;;;;5052551;28;20064;-75
2022/01/15 09:54:07;;;;;;;10.15;7.80;;;;;;;;;;5052957;28;20021;-74
2022/01/15 09:56:33;;;;;;;9.57;7.47;;;;;;;;;;5052958;28;20399;-75
2022/01/15 09:59:02;;;;;;;9.90;7.57;;;;;;;;;;5052272;28;20125;-75
2022/01/15 10:01:28;;;;;;;9.63;7.18;;;;;;;;;;5051791;28;20129;-75
2022/01/15 10:03:54;;;;;;;9.25;7.50;;;;;;;;;;5052364;28;20385;-75
2022/01/15 10:06:20;;;;;;;9.20;7.43;;;;;;;;;;5039068;28;20031;-75
2022/01/15 10:09:00;;;;;;;9.77;7.53;;;;;;;;;;5032542;28;20032;-75
2022/01/15 10:11:41;;;;;;;9.60;7.80;;;;;;;;;;5032161;28;20481;-75
2022/01/15 10:14:30;;;;;;;9.38;7.28;;;;;;;;;;5032883;28;20030;-74
2022/01/15 10:16:57;;;;;;;10.35;7.90;;;;;;;;;;5052471;28;20031;-73
2022/01/15 10:19:28;;;;;;;9.50;7.10;;;;;;;;;;5052491;28;20575;-73
2022/01/15 10:22:11;;;;;;;8.98;7.13;;;;;;;;;;5052490;28;20060;-73
2022/01/15 10:24:39;;;;;;;9.43;7.22;;;;;;;;;;5052210;28;20025;-73
2022/01/15 10:27:17;;;;;;;8.60;6.97;;;;;;;;;;5052427;28;20017;-73
2022/01/15 10:29:48;;;;;;;10.02;6.78;;;;;;;;;;5052013;28;20400;-73
2022/01/15 10:32:15;;;;;;;10.13;7.47;;;;;;;;;;5051844;28;20450;-73
2022/01/15 10:34:42;;;;;;;7.97;6.53;;;;;;;;;;5052605;28;20167;-73
2022/01/15 10:37:10;;;;;;;9.75;7.20;;;;;;;;;;5052401;28;20536;-73
2022/01/15 10:39:36;;;;;;;7.90;6.97;;;;;;;;;;5052185;28;20057;-73
2022/01/15 10:42:12;;;;;;;9.23;6.72;;;;;;;;;;5039829;28;20099;-73
2022/01/15 10:44:39;;;;;;;8.85;6.85;;;;;;;;;;5030714;28;20397;-73
2022/01/15 10:47:07;;;;;;;10.57;6.57;;;;;;;;;;5031226;28;20120;-73
2022/01/15 10:49:34;;;;;;;9.30;7.25;;;;;;;;;;5032175;28;20030;-73
2022/01/15 10:52:12;;;;;;;9.60;7.68;;;;;;;;;;5031898;28;20049;-74
2022/01/15 10:55:01;;;;;;;10.50;7.43;;;;;;;;;;5034546;28;20057;-73
2022/01/15 10:57:29;;;;;;;8.43;6.63;;;;;;;;;;5031794;28;20456;-73
2022/01/15 11:00:01;;;;;;;10.90;7.45;;;;;;;;;;5035500;28;20036;-73
2022/01/15 11:02:28;;;;;;;8.32;6.35;;;;;;;;;;5035302;28;20048;-74
2022/01/15 11:04:54;;;;;;;10.60;7.22;;;;;;;;;;5037203;28;20117;-73
2022/01/15 11:07:20;;;;;;;10.00;7.47;;;;;;;;;;5055770;28;20017;-73
2022/01/15 11:09:48;;;;;;;12.98;8.10;;;;;;;;;;5055424;28;20025;-74
2022/01/15 11:12:14;;;;;;;11.43;7.63;;;;;;;;;;5055205;28;20029;-73
2022/01/15 11:14:41;;;;;;;10.10;7.35;;;;;;;;;;5048956;28;20072;-73
2022/01/15 11:17:07;;;;;;;13.45;7.18;;;;;;;;;;5035878;28;20033;-73
2022/01/15 11:19:34;;;;;;;14.35;8.68;;;;;;;;;;5035056;28;20123;-73
2022/01/15 11:22:01;;;;;;;16.23;8.10;;;;;;;;;;5035725;28;20522;-73
2022/01/15 11:24:27;;;;;;;14.13;7.93;;;;;;;;;;5035586;28;20033;-74
2022/01/15 11:26:57;;;;;;;12.48;7.80;;;;;;;;;;5035996;28;20463;-73
2022/01/15 11:29:24;;;;;;;13.60;7.75;;;;;;;;;;5035665;28;20017;-75
2022/01/15 11:31:53;;;;;;;14.93;7.78;;;;;;;;;;5035657;28;20029;-75
2022/01/15 11:34:20;;;;;;;11.45;7.60;;;;;;;;;;5035843;28;20029;-75
2022/01/15 11:36:47;;;;;;;13.32;7.35;;;;;;;;;;5035804;28;20021;-75
2022/01/15 11:39:14;;;;;;;16.77;7.93;;;;;;;;;;5035414;28;20029;-75
2022/01/15 11:41:41;;;;;;;12.35;7.53;;;;;;;;;;5043697;28;20039;-75
2022/01/15 11:44:08;;;;;;;11.80;7.18;;;;;;;;;;5055069;28;20021;-75
2022/01/15 11:46:43;;;;;;;12.23;7.22;;;;;;;;;;5055344;28;20049;-75
2022/01/15 11:49:24;;;;;;;12.82;7.65;;;;;;;;;;5053622;28;20025;-75
2022/01/15 11:51:54;;;;;;;12.13;7.38;;;;;;;;;;5054460;28;20059;-75
2022/01/15 11:54:20;;;;;;;11.40;7.40;;;;;;;;;;5054924;28;20053;-75
2022/01/15 11:56:47;;;;;;;11.07;7.28;;;;;;;;;;5054888;28;20088;-75
2022/01/15 11:59:33;;;;;;;10.35;7.25;;;;;;;;;;5054675;28;20025;-75
2022/01/15 12:02:01;;;;;;;11.23;7.20;;;;;;;;;;5042393;28;20135;-75
2022/01/15 12:04:35;;;;;;;11.20;7.10;;;;;;;;;;5054679;28;20400;-75
2022/01/15 12:07:04;;;;;;;9.90;6.97;;;;;;;;;;5034741;28;20025;-75
2022/01/15 12:09:33;;;;;;;9.57;6.75;;;;;;;;;;5034545;28;20041;-75
2022/01/15 12:12:00;;;;;;;11.45;7.20;;;;;;;;;;5032896;28;20365;-75
2022/01/15 12:14:45;;;;;;;9.13;6.35;;;;;;;;;;5038666;28;20044;-75
2022/01/15 12:17:27;;;;;;;10.30;7.25;;;;;;;;;;5054455;28;20025;-75
2022/01/15 12:19:54;;;;;;;10.02;7.45;;;;;;;;;;5054585;28;20029;-75
2022/01/15 12:22:43;;;;;;;9.90;6.40;;;;;;;;;;5053652;28;20041;-75
2022/01/15 12:25:12;;;;;;;10.48;6.60;;;;;;;;;;5054423;28;20068;-75
2022/01/15 12:27:40;;;;;;;10.02;6.80;;;;;;;;;;5054219;28;20040;-75
2022/01/15 12:30:10;;;;;;;7.90;5.70;;;;;;;;;;5054016;28;20036;-75
2022/01/15 12:32:39;;;;;;;10.52;6.70;;;;;;;;;;5052886;28;20518;-75
2022/01/15 12:35:10;;;;;;;8.80;6.38;;;;;;;;;;5054220;28;20025;-75
2022/01/15 12:37:36;;;;;;;9.85;6.65;;;;;;;;;;5054301;28;20021;-75
2022/01/15 12:40:06;;;;;;;11.02;6.30;;;;;;;;;;5053986;28;20025;-76
2022/01/15 12:42:33;;;;;;;9.18;6.20;;;;;;;;;;5037920;28;20061;-75
2022/01/15 12:44:59;;;;;;;10.15;6.60;;;;;;;;;;5034214;28;20026;-75
2022/01/15 12:47:25;;;;;;;7.20;5.38;;;;;;;;;;5034375;28;20520;-75
2022/01/15 12:49:54;;;;;;;9.80;6.20;;;;;;;;;;5033699;28;20447;-75
2022/01/15 12:52:22;;;;;;;8.73;6.03;;;;;;;;;;5033375;28;20439;-75
2022/01/15 12:54:49;;;;;;;8.82;6.05;;;;;;;;;;5033942;28;20029;-75
2022/01/15 12:57:35;;;;;;;9.38;5.82;;;;;;;;;;5033886;28;20103;-75
2022/01/15 13:00:02;;;;;;;9.57;6.78;;;;;;;;;;5033518;28;20021;-75
2022/01/15 13:02:28;;;;;;;10.35;6.13;;;;;;;;;;5033087;28;20159;-75
2022/01/15 13:04:54;;;;;;;9.20;6.65;;;;;;;;;;5034939;28;20029;-75
2022/01/15 13:07:20;;;;;;;8.65;5.80;;;;;;;;;;5054044;28;20059;-75
2022/01/15 13:09:47;;;;;;;7.90;5.90;;;;;;;;;;5053254;28;20029;-75
2022/01/15 13:12:13;;;;;;;8.90;5.95;;;;;;;;;;5052838;28;20603;-76
2022/01/15 13:14:41;;;;;;;9.10;5.88;;;;;;;;;;5047471;28;20033;-75
2022/01/15 13:17:19;;;;;;;9.20;5.75;;;;;;;;;;5032998;28;20037;-75
2022/01/15 13:19:45;;;;;;;8.32;5.97;;;;;;;;;;5031796;28;20022;-75
2022/01/15 13:22:12;;;;;;;9.15;6.05;;;;;;;;;;5032996;28;20029;-75
2022/01/15 13:24:38;;;;;;;8.05;5.65;;;;;;;;;;5033142;28;20021;-75
2022/01/15 13:27:04;;;;;;;9.45;6.05;;;;;;;;;;5033169;28;20029;-75
2022/01/15 13:29:42;;;;;;;8.90;6.10;;;;;;;;;;5032980;28;20079;-75
2022/01/15 13:32:09;;;;;;;10.18;6.50;;;;;;;;;;5032594;28;20022;-75
2022/01/15 13:34:36;;;;;;;9.05;5.80;;;;;;;;;;5033474;28;20040;-75
2022/01/15 13:37:09;;;;;;;10.15;6.22;;;;;;;;;;5032935;28;20034;-74
2022/01/15 13:39:36;;;;;;;9.07;5.68;;;;;;;;;;5032915;28;20025;-75
2022/01/15 13:42:03;;;;;;;9.13;6.28;;;;;;;;;;5044183;28;20060;-75
2022/01/15 13:44:32;;;;;;;8.48;5.80;;;;;;;;;;5052890;28;20033;-75
2022/01/15 13:47:07;;;;;;;7.70;5.90;;;;;;;;;;5052693;28;20029;-75
2022/01/15 13:53:04;;;;;;;8.88;5.38;;;;;;;;;;5052685;28;20432;-75
2022/01/15 13:55:23;;;;;;;7.22;5.45;;;;;;;;;;5052533;28;20036;-75
2022/01/15 13:57:49;;;;;;;;;;;;;;;;;;5051584;28;20110;-75
2022/01/15 14:00:16;;;;;;;8.80;5.88;;;;;;;;;;5051093;28;19909;-75
2022/01/15 14:02:44;;;;;;;8.02;5.40;;;;;;;;;;5051096;28;20025;-75
2022/01/15 14:05:11;;;;;;;8.32;5.75;;;;;;;;;;5048464;28;20151;-75
2022/01/15 14:07:37;;;;;;;12.32;5.88;;;;;;;;;;5032436;28;20060;-75
2022/01/15 14:10:08;;;;;;;7.65;5.25;;;;;;;;;;5032568;28;20030;-75
2022/01/15 14:12:34;;;;;;;5.97;5.03;;;;;;;;;;5032451;28;20025;-75
2022/01/15 14:15:05;;;;;;;7.68;5.30;;;;;;;;;;5041171;28;20032;-75
2022/01/15 14:17:32;;;;;;;6.93;5.50;;;;;;;;;;5052357;28;20102;-75
2022/01/15 14:22:32;;;;;;;6.60;4.80;;;;;;;;;;5051847;28;20403;-75
2022/01/15 14:25:15;;;;;;;6.85;5.05;;;;;;;;;;5050936;28;20078;-75
2022/01/15 14:27:41;;;;;;;6.45;4.55;;;;;;;;;;5050806;28;20074;-75
2022/01/15 14:30:08;;;;;;;8.25;5.68;;;;;;;;;;5051534;28;20025;-75
2022/01/15 14:32:34;;;;;;;7.32;5.18;;;;;;;;;;5052314;28;20039;-75
2022/01/15 14:35:00;;;;;;;7.35;5.00;;;;;;;;;;5052325;28;20029;-75
2022/01/15 14:37:30;;;;;;;7.05;4.82;;;;;;;;;;5052237;28;20025;-75
2022/01/15 14:39:56;;;;;;;8.10;5.55;;;;;;;;;;5052492;28;20082;-75
2022/01/15 14:42:23;;;;;;;6.68;5.40;;;;;;;;;;5036747;28;20025;-75
2022/01/15 14:44:53;;;;;;;6.53;5.03;;;;;;;;;;5032476;28;20029;-75
2022/01/15 14:47:19;;;;;;;5.78;4.63;;;;;;;;;;5032240;28;20548;-75
2022/01/15 14:49:45;;;;;;;6.82;4.65;;;;;;;;;;5032372;28;20071;-75
2022/01/15 14:52:11;;;;;;;6.07;4.70;;;;;;;;;;5031716;28;20029;-75
2022/01/15 14:54:38;;;;;;;7.60;5.15;;;;;;;;;;5032263;28;20400;-75
2022/01/15 14:57:04;;;;;;;5.85;4.50;;;;;;;;;;5031852;28;20120;-75
2022/01/15 14:59:30;;;;;;;6.78;4.82;;;;;;;;;;5032477;28;20552;-73
2022/01/15 15:01:56;;;;;;;6.18;4.82;;;;;;;;;;5031862;28;20017;-73
2022/01/15 15:04:22;;;;;;;6.53;5.47;;;;;;;;;;5032392;28;20117;-73
2022/01/15 15:06:48;;;;;;;6.05;4.63;;;;;;;;;;5049440;28;20022;-73
2022/01/15 15:09:14;;;;;;;5.90;4.45;;;;;;;;;;5052184;28;20026;-73
2022/01/15 15:11:40;;;;;;;5.93;4.72;;;;;;;;;;5051761;28;20047;-73
2022/01/15 15:14:07;;;;;;;6.07;5.00;;;;;;;;;;5051294;28;20538;-73